createdAt,value
2023-03-12T01:08:35.268Z,5.70
2023-03-12T01:11:23.827Z,4.95
2023-03-12T01:14:11.746Z,6.00
2023-03-12T01:16:59.232Z,7.15
2023-03-12T01:19:49.098Z,5.80
2023-03-12T01:22:38.652Z,6.15
2023-03-12T01:28:29.081Z,5.35
2023-03-12T01:31:19.024Z,3.67
2023-03-12T01:34:06.508Z,3.70
2023-03-12T01:36:54.644Z,3.80
2023-03-12T01:39:44.774Z,3.30
2023-03-12T01:42:32.501Z,3.30
2023-03-12T01:45:57.782Z,3.13
2023-03-12T01:48:49.909Z,3.17
2023-03-12T01:51:59.856Z,3.13
2023-03-12T01:55:13.324Z,3.67
2023-03-12T01:58:03.118Z,2.95
2023-03-12T02:00:50.810Z,3.40
2023-03-12T02:03:39.026Z,3.17
2023-03-12T02:06:35.790Z,2.90
2023-03-12T02:09:25.130Z,2.72
2023-03-12T02:12:13.328Z,3.50
2023-03-12T02:15:01.057Z,3.47
2023-03-12T02:17:51.631Z,3.30
2023-03-12T02:21:21.432Z,3.38
2023-03-12T02:24:22.286Z,3.10
2023-03-12T02:27:12.178Z,2.95
2023-03-12T02:30:01.504Z,3.85
2023-03-12T04:37:21.422Z,3.50
2023-03-12T04:40:12.266Z,3.35
2023-03-12T04:42:59.771Z,3.50
2023-03-12T04:45:50.787Z,3.30
2023-03-12T04:48:38.174Z,3.22
2023-03-12T04:51:26.669Z,3.80
2023-03-12T04:54:14.516Z,3.42
2023-03-12T04:57:03.198Z,3.65
2023-03-12T04:59:51.186Z,3.67
2023-03-12T05:02:39.482Z,3.25
2023-03-12T05:05:26.918Z,3.38
2023-03-12T05:08:14.226Z,3.55
2023-03-12T05:11:01.521Z,3.72
2023-03-12T05:13:49.928Z,3.50
2023-03-12T05:16:38.159Z,3.45
2023-03-12T05:19:26.734Z,3.08
2023-03-12T05:22:14.869Z,3.28
2023-03-12T05:25:03.353Z,3.08
2023-03-12T05:27:50.827Z,3.30
2023-03-12T05:30:39.728Z,3.30
2023-03-12T05:33:29.103Z,3.35
2023-03-12T05:36:18.538Z,3.72
2023-03-12T05:39:07.674Z,3.13
2023-03-12T05:41:57.229Z,3.63
2023-03-12T05:44:45.886Z,3.35
2023-03-12T05:47:37.351Z,3.40
2023-03-12T05:50:24.864Z,3.55
2023-03-12T05:53:12.633Z,3.33
2023-03-12T05:56:09.272Z,3.63
2023-03-12T05:58:56.574Z,3.58
2023-03-12T06:01:53.440Z,3.50
2023-03-12T06:04:42.663Z,3.50
2023-03-12T06:07:35.284Z,3.63
2023-03-12T06:10:25.659Z,3.47
2023-03-12T06:13:18.408Z,3.78
2023-03-12T06:16:17.648Z,4.00
2023-03-12T06:22:35.881Z,3.25
2023-03-12T06:25:26.467Z,3.80
2023-03-12T06:28:14.892Z,4.00
2023-03-12T06:31:04.121Z,3.72
2023-03-12T06:33:52.018Z,3.40
2023-03-12T06:36:39.301Z,3.72
2023-03-12T06:39:26.758Z,3.92
2023-03-12T06:42:14.933Z,3.80
2023-03-12T06:45:02.147Z,3.35
2023-03-12T06:47:49.638Z,4.00
2023-03-12T06:50:37.703Z,3.75
2023-03-12T06:53:26.047Z,3.58
2023-03-12T06:56:15.053Z,3.15
2023-03-12T06:59:02.985Z,3.90
2023-03-12T07:01:52.872Z,3.78
2023-03-12T07:04:45.510Z,3.70
2023-03-12T07:07:33.263Z,3.67
2023-03-12T07:10:43.157Z,4.20
2023-03-12T07:13:37.883Z,4.18
2023-03-12T07:56:59.251Z,4.20
2023-03-12T07:59:47.266Z,4.70
2023-03-12T08:02:35.221Z,4.18
2023-03-12T08:05:24.882Z,4.63
2023-03-12T08:08:16.415Z,4.95
2023-03-12T08:11:05.144Z,4.82
2023-03-12T08:13:52.474Z,4.57
2023-03-12T08:16:39.663Z,4.43
2023-03-12T08:19:27.906Z,4.80
2023-03-12T08:22:15.177Z,5.35
2023-03-12T08:25:02.864Z,4.68
2023-03-12T08:27:50.200Z,4.65
2023-03-12T08:30:37.634Z,4.47
2023-03-12T08:33:24.858Z,4.90
2023-03-12T08:36:12.170Z,4.90
2023-03-12T08:38:59.460Z,4.43
2023-03-12T08:41:46.619Z,5.13
2023-03-12T08:44:35.757Z,4.05
2023-03-12T08:47:25.405Z,4.40
2023-03-12T08:50:32.681Z,3.97
2023-03-12T08:56:52.709Z,4.35
2023-03-12T08:59:42.070Z,4.40
2023-03-12T09:02:33.515Z,4.35
2023-03-12T09:05:21.115Z,4.40
2023-03-12T09:08:10.135Z,4.90
2023-03-12T09:10:58.377Z,4.30
2023-03-12T09:14:16.855Z,4.70
2023-03-12T09:20:24.094Z,4.22
2023-03-12T09:23:11.554Z,4.63
2023-03-12T09:26:10.892Z,4.22
2023-03-12T09:28:59.377Z,4.40
2023-03-12T09:31:46.980Z,6.05
2023-03-12T09:38:13.928Z,4.93
2023-03-12T09:41:05.610Z,5.13
2023-03-12T09:43:58.835Z,5.03
2023-03-12T09:46:53.681Z,5.45
2023-03-12T09:49:50.350Z,6.22
2023-03-12T09:52:48.977Z,6.35
2023-03-12T09:55:39.337Z,6.80
2023-03-12T09:58:31.113Z,7.60
2023-03-12T10:01:40.422Z,7.25
2023-03-12T10:18:16.043Z,8.35
2023-03-12T10:58:28.623Z,7.25
2023-03-12T11:04:41.950Z,7.55
2023-03-12T11:07:44.671Z,7.90
2023-03-12T11:27:46.310Z,7.60
2023-03-12T11:30:39.069Z,7.97
2023-03-12T11:33:27.866Z,8.02
2023-03-12T11:36:25.035Z,7.78
2023-03-12T11:39:44.408Z,8.63
2023-03-12T12:19:44.658Z,8.63
2023-03-12T12:22:41.952Z,8.93
2023-03-12T12:28:55.174Z,7.93
2023-03-12T12:38:22.234Z,6.63
2023-03-12T12:41:14.920Z,7.03
2023-03-12T12:44:06.669Z,6.35
2023-03-12T12:47:03.844Z,6.30
2023-03-12T13:34:28.339Z,3.70
2023-03-12T13:37:28.793Z,5.22
2023-03-12T13:40:32.277Z,4.65
2023-03-12T13:43:40.135Z,3.90
2023-03-12T13:46:39.381Z,4.03
2023-03-12T13:50:01.221Z,3.85
2023-03-12T13:52:58.448Z,3.38
2023-03-12T13:55:49.857Z,3.60
2023-03-12T13:59:00.687Z,2.83
2023-03-12T14:01:50.149Z,2.95
2023-03-12T14:08:43.046Z,2.83
2023-03-12T16:24:11.101Z,2.38
2023-03-12T16:27:08.221Z,1.73
2023-03-12T16:40:16.364Z,2.30
2023-03-12T16:46:41.809Z,2.00
2023-03-12T16:52:56.697Z,2.13
2023-03-12T17:02:45.247Z,1.65
2023-03-12T17:05:37.609Z,2.30
2023-03-12T17:08:30.235Z,1.73
2023-03-12T17:11:34.309Z,1.73
2023-03-12T17:14:32.926Z,1.90
2023-03-12T17:17:31.254Z,1.40
2023-03-12T17:20:26.660Z,1.45
2023-03-12T17:23:15.803Z,1.27
2023-03-12T17:26:06.963Z,1.33
2023-03-12T17:28:56.722Z,1.35
2023-03-12T17:31:44.504Z,1.40
2023-03-12T17:34:32.684Z,1.02
2023-03-12T17:37:20.325Z,1.58
2023-03-12T17:40:17.423Z,1.60
2023-03-12T17:43:08.206Z,1.48
2023-03-12T17:45:57.367Z,2.08
2023-03-12T17:48:47.056Z,2.10
2023-03-12T17:51:40.913Z,2.53
2023-03-12T17:54:31.140Z,2.80
2023-03-12T17:57:19.723Z,2.60
2023-03-12T18:00:11.684Z,3.13
2023-03-12T18:03:05.538Z,2.22
2023-03-12T18:05:56.227Z,1.85
2023-03-12T18:08:44.907Z,2.00
2023-03-12T18:11:34.702Z,2.47
2023-03-12T18:14:30.468Z,2.20
2023-03-12T18:17:30.268Z,2.03
2023-03-12T18:20:37.796Z,2.28
2023-03-12T18:23:47.635Z,1.70
2023-03-12T18:37:10.213Z,3.72
2023-03-12T18:40:02.649Z,2.67
2023-03-12T18:42:56.718Z,2.72
2023-03-12T18:45:46.526Z,2.60
2023-03-12T18:48:38.012Z,2.60
2023-03-12T18:51:29.261Z,2.15
2023-03-12T18:54:17.310Z,3.17
2023-03-12T18:57:05.987Z,3.00
2023-03-12T18:59:54.818Z,2.47
2023-03-12T19:02:46.525Z,2.28
2023-03-12T19:05:37.704Z,1.90
2023-03-12T19:08:26.290Z,2.17
2023-03-12T19:55:16.937Z,2.35
2023-03-12T19:58:04.540Z,2.35
2023-03-12T20:00:52.754Z,2.45
2023-03-12T20:03:44.181Z,1.85
2023-03-12T20:06:31.574Z,1.90
2023-03-12T20:09:18.899Z,2.17
2023-03-12T20:12:06.541Z,2.10
2023-03-12T20:14:54.025Z,1.92
2023-03-12T20:17:41.526Z,2.33
2023-03-12T20:20:28.940Z,2.47
2023-03-12T20:23:17.701Z,2.33
2023-03-12T20:26:05.420Z,2.08
2023-03-12T20:28:52.585Z,1.80
2023-03-12T20:31:42.430Z,2.10
2023-03-12T20:34:29.840Z,2.35
2023-03-12T20:37:18.058Z,2.08
2023-03-12T20:40:06.246Z,2.25
2023-03-12T20:42:53.560Z,2.10
2023-03-12T21:19:32.026Z,2.38
2023-03-12T21:25:43.443Z,2.65
2023-03-12T21:55:46.105Z,2.53
2023-03-12T22:46:19.840Z,2.30
2023-03-12T23:09:24.326Z,2.72
2023-03-12T23:15:35.200Z,2.33
